Time;durP1;ratioP1;P1;durP2;ratioP2;P2;SDS_P1;SDS_P2;PMS_P1;PMS_P2;Temp;Humidity;BMP_temperature;BMP_pressure;BME280_temperature;BME280_humidity;BME280_pressure;Samples;Min_cycle;Max_cycle;Signal;HPM_P1;HPM_P2
2023/04/01 00:02:00;;;;;;;3.63;1.30;;;12.40;99.90;;;;;;4974119;28;20979;-71
2023/04/01 00:04:32;;;;;;;4.13;1.20;;;12.40;99.90;;;;;;4975131;28;20446;-72
2023/04/01 00:06:59;;;;;;;1.57;1.00;;;12.40;99.90;;;;;;4975490;28;20419;-72
2023/04/01 00:09:25;;;;;;;5.60;1.93;;;12.40;99.90;;;;;;4969789;28;20468;-70
2023/04/01 00:11:51;;;;;;;4.10;1.00;;;12.40;99.90;;;;;;4974824;28;20458;-71
2023/04/01 00:14:17;;;;;;;3.67;1.07;;;12.40;99.90;;;;;;4990284;28;20423;-71
2023/04/01 00:16:43;;;;;;;4.73;1.53;;;12.40;99.90;;;;;;4970322;28;20473;-72
2023/04/01 00:19:11;;;;;;;3.70;1.17;;;12.30;99.90;;;;;;4970937;28;20399;-72
2023/04/01 00:21:41;;;;;;;2.23;1.40;;;12.30;99.90;;;;;;4970865;28;20432;-71
2023/04/01 00:24:08;;;;;;;3.07;0.93;;;12.30;99.90;;;;;;4954051;28;20982;-71
2023/04/01 00:26:37;;;;;;;2.90;1.27;;;12.30;99.90;;;;;;4956078;28;20434;-71
2023/04/01 00:29:07;;;;;;;1.77;1.10;;;12.30;99.90;;;;;;4954574;29;20435;-72
2023/04/01 00:31:36;;;;;;;1.70;0.97;;;12.30;99.90;;;;;;4955570;28;20459;-72
2023/04/01 00:34:04;;;;;;;2.17;1.00;;;12.30;99.90;;;;;;4955717;28;20495;-71
2023/04/01 00:36:35;;;;;;;2.40;0.90;;;12.30;99.90;;;;;;4987656;28;20440;-71
2023/04/01 00:39:01;;;;;;;3.80;1.83;;;12.30;99.90;;;;;;4973697;28;20448;-71
2023/04/01 00:41:31;;;;;;;1.93;1.00;;;12.30;99.90;;;;;;4975216;28;20442;-72
2023/04/01 00:44:21;;;;;;;1.40;0.77;;;12.30;99.90;;;;;;4936356;29;20454;-71
2023/04/01 00:46:50;;;;;;;1.77;0.87;;;12.30;99.90;;;;;;4952316;29;20761;-71
2023/04/01 00:49:18;;;;;;;2.73;0.90;;;12.30;99.90;;;;;;4984531;28;20488;-71
2023/04/01 00:51:50;;;;;;;1.67;0.80;;;12.30;99.90;;;;;;4972638;28;20900;-71
2023/04/01 00:54:18;;;;;;;1.87;1.00;;;12.20;99.90;;;;;;4984131;28;20421;-71
2023/04/01 00:56:51;;;;;;;3.23;0.60;;;12.20;99.90;;;;;;4972419;28;20469;-71
2023/04/01 00:59:23;;;;;;;4.87;0.80;;;12.20;99.90;;;;;;4988366;28;20422;-71
2023/04/01 01:01:50;;;;;;;1.70;0.80;;;12.20;99.90;;;;;;4970900;28;20443;-72
2023/04/01 01:04:31;;;;;;;1.17;0.70;;;12.20;99.90;;;;;;4965225;28;20423;-71
2023/04/01 01:07:35;;;;;;;2.67;0.90;;;12.20;99.90;;;;;;4954433;28;20426;-71
2023/04/01 01:10:04;;;;;;;1.30;0.80;;;12.20;99.90;;;;;;4953708;29;20513;-71
2023/04/01 01:12:57;;;;;;;2.53;0.90;;;12.20;99.90;;;;;;4971935;28;20476;-71
2023/04/01 01:15:55;;;;;;;2.70;1.00;;;12.20;99.90;;;;;;4953698;29;20444;-72
2023/04/01 01:18:27;;;;;;;1.90;0.90;;;12.20;99.90;;;;;;4949010;28;20815;-71
2023/04/01 01:21:26;;;;;;;4.20;0.90;;;12.20;99.90;;;;;;4972539;28;20489;-72
2023/04/01 01:24:03;;;;;;;1.30;0.60;;;12.20;99.90;;;;;;4964362;28;20434;-72
2023/04/01 01:27:02;;;;;;;3.10;0.90;;;12.20;99.90;;;;;;4969365;28;20444;-71
2023/04/01 01:29:58;;;;;;;0.90;0.70;;;12.20;99.90;;;;;;4968450;28;20467;-72
2023/04/01 01:33:15;;;;;;;1.50;0.80;;;12.20;99.90;;;;;;4957147;28;20476;-71
2023/04/01 01:35:52;;;;;;;1.80;0.80;;;12.20;99.90;;;;;;4947346;29;20442;-71
2023/04/01 01:38:31;;;;;;;2.20;0.80;;;12.20;99.90;;;;;;4979189;28;20477;-71
2023/04/01 01:41:03;;;;;;;3.63;1.03;;;12.10;99.90;;;;;;4941239;28;20458;-71
2023/04/01 01:43:38;;;;;;;2.53;0.97;;;12.20;99.90;;;;;;4954498;28;20420;-71
2023/04/01 01:46:15;;;;;;;1.77;0.73;;;12.20;99.90;;;;;;4956724;28;20438;-72
2023/04/01 01:48:45;;;;;;;1.87;1.00;;;12.20;99.90;;;;;;4956733;28;20424;-71
2023/04/01 01:51:14;;;;;;;2.30;0.97;;;12.20;99.90;;;;;;4971732;28;20445;-71
2023/04/01 01:53:42;;;;;;;1.23;0.80;;;12.20;99.90;;;;;;4952795;28;20781;-71
2023/04/01 01:56:12;;;;;;;1.20;1.00;;;12.10;99.90;;;;;;4949806;28;20457;-71
2023/04/01 01:58:47;;;;;;;2.50;0.90;;;12.10;99.90;;;;;;4968658;28;20533;-71
2023/04/01 02:01:31;;;;;;;2.70;0.80;;;12.10;99.90;;;;;;4972648;28;20807;-72
2023/04/01 02:04:05;;;;;;;1.77;0.90;;;12.20;99.90;;;;;;4971548;28;20443;-71
2023/04/01 02:06:39;;;;;;;1.10;0.63;;;12.10;99.90;;;;;;4968961;28;20421;-72
2023/04/01 02:09:10;;;;;;;2.47;1.10;;;12.10;99.90;;;;;;4959527;28;20919;-71
2023/04/01 02:11:47;;;;;;;0.87;0.60;;;12.10;99.90;;;;;;4962798;28;20461;-72
2023/04/01 02:14:22;;;;;;;1.83;1.30;;;12.10;99.90;;;;;;4947166;28;20415;-71
2023/04/01 02:16:53;;;;;;;2.63;1.00;;;12.10;99.90;;;;;;4964215;28;20449;-71
2023/04/01 02:19:31;;;;;;;2.40;0.70;;;12.10;99.90;;;;;;4972106;28;20434;-71
2023/04/01 02:22:02;;;;;;;1.83;0.90;;;12.10;99.90;;;;;;4969079;28;20450;-71
2023/04/01 02:24:35;;;;;;;1.20;0.70;;;12.10;99.90;;;;;;4969683;28;20786;-71
2023/04/01 02:27:01;;;;;;;1.43;0.70;;;12.10;99.90;;;;;;4969175;28;20518;-71
2023/04/01 02:29:31;;;;;;;3.73;0.93;;;12.10;99.90;;;;;;4951841;28;20481;-72
2023/04/01 02:31:58;;;;;;;2.10;1.60;;;12.10;99.90;;;;;;4969228;28;20473;-75
2023/04/01 02:34:27;;;;;;;1.80;0.97;;;12.10;99.90;;;;;;4968651;28;20511;-75
2023/04/01 02:36:55;;;;;;;1.37;0.70;;;12.10;99.90;;;;;;4950011;28;20423;-74
2023/04/01 02:39:25;;;;;;;1.57;0.80;;;12.10;99.90;;;;;;4955258;28;20415;-73
2023/04/01 02:41:56;;;;;;;2.47;1.00;;;12.10;99.90;;;;;;4953992;28;20440;-73
2023/04/01 02:44:24;;;;;;;2.20;1.03;;;12.10;99.90;;;;;;4952203;28;20415;-73
2023/04/01 02:46:51;;;;;;;2.50;0.90;;;12.10;99.90;;;;;;4958253;28;20446;-73
2023/04/01 02:49:16;;;;;;;2.57;0.93;;;12.10;99.90;;;;;;4971551;28;20408;-73
2023/04/01 02:51:45;;;;;;;3.20;1.00;;;12.10;99.90;;;;;;4963096;28;20469;-73
2023/04/01 02:54:11;;;;;;;1.77;0.90;;;12.10;99.90;;;;;;4953203;28;20431;-73
2023/04/01 02:56:39;;;;;;;2.10;0.93;;;12.10;99.90;;;;;;4962067;28;20442;-74
2023/04/01 02:59:05;;;;;;;1.83;0.90;;;12.00;99.90;;;;;;4969263;28;20801;-74
2023/04/01 03:01:31;;;;;;;0.67;0.60;;;12.00;99.90;;;;;;4969097;28;20434;-73
2023/04/01 03:04:02;;;;;;;2.07;1.13;;;12.00;99.90;;;;;;4937093;29;20613;-73
2023/04/01 03:06:28;;;;;;;1.97;1.07;;;12.00;99.90;;;;;;4961670;28;20532;-73
2023/04/01 03:08:57;;;;;;;1.63;0.97;;;12.00;99.90;;;;;;4972531;28;20419;-73
2023/04/01 03:11:23;;;;;;;4.43;1.00;;;12.00;99.90;;;;;;4937169;29;20467;-73
2023/04/01 03:13:49;;;;;;;2.60;1.10;;;12.00;99.90;;;;;;4969150;28;20966;-73
2023/04/01 03:16:15;;;;;;;1.10;1.00;;;12.00;99.90;;;;;;4975822;28;20452;-73
2023/04/01 03:18:41;;;;;;;1.20;0.77;;;12.00;99.90;;;;;;4963701;28;20486;-73
2023/04/01 03:21:24;;;;;;;1.70;0.97;;;12.00;99.90;;;;;;4956285;28;20972;-73
2023/04/01 03:23:50;;;;;;;2.80;0.90;;;12.00;99.90;;;;;;4956842;28;20418;-73
2023/04/01 03:26:17;;;;;;;1.60;0.70;;;12.00;99.90;;;;;;4953444;28;20424;-73
2023/04/01 03:28:47;;;;;;;1.37;0.77;;;12.00;99.90;;;;;;4953272;29;20409;-73
2023/04/01 03:31:13;;;;;;;1.30;0.70;;;12.00;99.90;;;;;;4950697;28;20454;-73
2023/04/01 03:33:46;;;;;;;1.33;0.80;;;12.00;99.90;;;;;;4959574;28;20447;-73
2023/04/01 03:36:14;;;;;;;2.73;0.90;;;12.00;99.90;;;;;;4968405;28;20498;-73
2023/04/01 03:38:46;;;;;;;1.57;0.80;;;12.00;99.90;;;;;;4940616;29;20437;-73
2023/04/01 03:41:20;;;;;;;2.07;1.00;;;12.00;99.90;;;;;;4952430;28;20521;-73
2023/04/01 03:43:55;;;;;;;1.27;1.00;;;12.00;99.90;;;;;;4960685;28;20423;-73
2023/04/01 03:46:23;;;;;;;1.37;0.73;;;12.00;99.90;;;;;;4955887;29;20433;-73
2023/04/01 03:48:49;;;;;;;3.13;0.87;;;12.00;99.90;;;;;;4973299;28;20882;-73
2023/04/01 03:51:15;;;;;;;1.47;0.80;;;12.00;99.90;;;;;;4979009;28;20476;-73
2023/04/01 03:53:41;;;;;;;1.63;0.70;;;12.00;99.90;;;;;;4956063;28;20430;-73
2023/04/01 03:56:08;;;;;;;2.20;0.77;;;12.00;99.90;;;;;;4940042;29;20432;-73
2023/04/01 03:58:38;;;;;;;2.20;0.90;;;12.00;99.90;;;;;;4981534;28;20275;-73
2023/04/01 04:01:18;;;;;;;1.50;0.70;;;12.00;99.90;;;;;;4975001;28;20438;-73
2023/04/01 04:03:49;;;;;;;1.30;0.80;;;12.00;99.90;;;;;;4974885;28;20412;-73
2023/04/01 04:06:18;;;;;;;3.13;1.00;;;12.00;99.90;;;;;;4963054;28;20416;-73
2023/04/01 04:08:47;;;;;;;2.23;1.20;;;12.00;99.90;;;;;;4981549;28;20931;-73
2023/04/01 04:11:13;;;;;;;1.30;0.80;;;12.00;99.90;;;;;;4970779;28;20450;-73
2023/04/01 04:13:42;;;;;;;0.83;0.77;;;12.00;99.90;;;;;;4955386;29;20459;-74
2023/04/01 04:16:11;;;;;;;1.03;0.80;;;12.00;99.90;;;;;;4966922;28;20470;-73
2023/04/01 04:18:42;;;;;;;0.90;0.70;;;12.00;99.90;;;;;;4940230;29;20448;-74
2023/04/01 04:21:17;;;;;;;3.23;0.97;;;12.00;99.90;;;;;;4978018;28;20439;-71
2023/04/01 04:23:43;;;;;;;0.90;0.80;;;12.00;99.90;;;;;;4961630;28;20443;-71
2023/04/01 04:26:12;;;;;;;1.00;0.67;;;12.00;99.90;;;;;;4981432;28;20466;-71
2023/04/01 04:28:41;;;;;;;0.90;0.77;;;12.00;99.90;;;;;;4970984;28;20843;-71
2023/04/01 04:31:17;;;;;;;3.00;0.90;;;12.00;99.90;;;;;;4974891;28;20529;-72
2023/04/01 04:33:43;;;;;;;2.07;0.90;;;12.00;99.90;;;;;;4972025;28;20929;-71
2023/04/01 04:36:09;;;;;;;4.03;1.10;;;11.90;99.90;;;;;;4957009;28;20445;-71
2023/04/01 04:38:38;;;;;;;1.03;0.93;;;12.00;99.90;;;;;;4970263;28;20398;-71
2023/04/01 04:41:09;;;;;;;1.07;0.97;;;11.90;99.90;;;;;;4941368;29;20512;-71
2023/04/01 04:43:39;;;;;;;1.57;0.93;;;11.90;99.90;;;;;;4944250;28;20457;-72
2023/04/01 04:46:11;;;;;;;1.00;0.70;;;12.00;99.90;;;;;;4945104;29;20855;-71
2023/04/01 04:48:38;;;;;;;0.90;0.80;;;12.00;99.90;;;;;;4955317;28;20455;-71
2023/04/01 04:51:04;;;;;;;1.00;0.80;;;11.90;99.90;;;;;;4969988;28;20431;-71
2023/04/01 04:53:30;;;;;;;1.60;0.97;;;12.00;99.90;;;;;;4958004;28;20470;-71
2023/04/01 04:55:58;;;;;;;1.73;1.20;;;12.00;99.90;;;;;;4962657;28;20451;-71
2023/04/01 04:58:43;;;;;;;1.70;1.00;;;11.90;99.90;;;;;;4959231;28;20815;-71
2023/04/01 05:01:17;;;;;;;2.47;0.97;;;11.90;99.90;;;;;;4946268;28;20476;-71
2023/04/01 05:03:44;;;;;;;1.60;1.33;;;11.90;99.90;;;;;;4973205;28;20405;-71
2023/04/01 05:06:16;;;;;;;1.33;0.87;;;11.90;99.90;;;;;;4946054;29;20436;-72
2023/04/01 05:08:44;;;;;;;1.37;1.00;;;11.90;99.90;;;;;;4969372;28;20436;-72
2023/04/01 05:11:16;;;;;;;0.97;0.80;;;11.90;99.90;;;;;;4953754;28;20471;-71
2023/04/01 05:13:48;;;;;;;1.57;1.20;;;11.90;99.90;;;;;;4950298;29;20826;-71
2023/04/01 05:16:19;;;;;;;2.00;1.00;;;11.90;99.90;;;;;;4938830;28;21007;-71
2023/04/01 05:18:46;;;;;;;2.20;1.17;;;11.90;99.90;;;;;;4963216;28;20848;-72
2023/04/01 05:21:16;;;;;;;2.70;0.97;;;11.90;99.90;;;;;;4968881;28;20522;-72
2023/04/01 05:23:43;;;;;;;1.70;1.00;;;11.90;99.90;;;;;;4953201;28;20452;-71
2023/04/01 05:26:14;;;;;;;1.23;1.10;;;11.90;99.90;;;;;;4975738;28;20423;-71
2023/04/01 05:28:42;;;;;;;1.10;1.00;;;11.90;99.90;;;;;;4975350;28;20843;-71
2023/04/01 05:31:11;;;;;;;1.03;0.93;;;11.90;99.90;;;;;;4938015;29;20460;-71
2023/04/01 05:33:47;;;;;;;1.90;1.00;;;11.90;99.90;;;;;;4961303;28;20554;-71
2023/04/01 05:36:15;;;;;;;1.30;1.20;;;11.90;99.90;;;;;;4979417;28;20465;-71
2023/04/01 05:38:42;;;;;;;1.10;1.00;;;11.90;99.90;;;;;;4951860;28;20451;-70
2023/04/01 05:41:14;;;;;;;1.90;1.20;;;11.80;99.90;;;;;;4950004;28;20552;-71
2023/04/01 05:43:43;;;;;;;1.90;1.10;;;11.90;99.90;;;;;;4972414;28;20393;-71
2023/04/01 05:46:45;;;;;;;1.37;1.10;;;11.90;99.90;;;;;;4955498;28;20810;-71
2023/04/01 05:49:19;;;;;;;1.00;0.90;;;11.90;99.90;;;;;;4952698;28;20427;-71
2023/04/01 05:51:47;;;;;;;1.57;1.10;;;11.90;99.90;;;;;;4956220;28;20467;-72
2023/04/01 05:54:15;;;;;;;1.50;1.40;;;11.90;99.90;;;;;;4968402;28;20453;-72
2023/04/01 05:56:45;;;;;;;1.70;1.50;;;11.90;99.90;;;;;;4960214;28;20469;-71
2023/04/01 05:59:14;;;;;;;1.70;1.37;;;11.90;99.90;;;;;;4978754;28;20426;-71
2023/04/01 06:01:40;;;;;;;2.23;1.30;;;11.80;99.90;;;;;;4952878;28;20531;-71
2023/04/01 06:04:12;;;;;;;1.93;1.50;;;11.80;99.90;;;;;;4977647;28;20430;-71
2023/04/01 06:06:39;;;;;;;2.17;1.70;;;11.80;99.90;;;;;;4971800;28;20505;-72
2023/04/01 06:09:38;;;;;;;1.67;1.47;;;11.80;99.90;;;;;;4964590;28;20420;-72
2023/04/01 06:12:07;;;;;;;3.57;1.80;;;11.80;99.90;;;;;;4945304;28;20470;-71
2023/04/01 06:15:16;;;;;;;2.13;1.57;;;11.80;99.90;;;;;;4973821;28;20425;-71
2023/04/01 06:17:57;;;;;;;1.83;1.73;;;11.80;99.90;;;;;;4973471;28;20446;-71
2023/04/01 06:20:47;;;;;;;2.50;1.60;;;11.80;99.90;;;;;;4965881;28;20452;-71
2023/04/01 06:23:51;;;;;;;2.70;1.73;;;11.80;99.90;;;;;;4942645;29;20948;-73
2023/04/01 06:26:36;;;;;;;1.77;1.40;;;11.80;99.90;;;;;;4945035;28;21012;-71
2023/04/01 06:29:21;;;;;;;1.83;1.43;;;11.80;99.90;;;;;;4942556;28;20467;-76
2023/04/01 06:32:00;;;;;;;1.83;1.67;;;11.80;99.90;;;;;;4953762;29;20463;-75
2023/04/01 06:34:58;;;;;;;5.40;1.90;;;11.80;99.90;;;;;;4937874;29;20464;-74
2023/04/01 06:37:53;;;;;;;1.40;1.30;;;11.80;99.90;;;;;;4937543;29;20510;-75
2023/04/01 06:40:41;;;;;;;2.00;1.67;;;11.80;99.90;;;;;;4968987;28;20530;-74
2023/04/01 06:43:27;;;;;;;2.13;1.93;;;11.80;99.90;;;;;;4937142;29;20430;-74
2023/04/01 06:46:40;;;;;;;2.30;1.60;;;11.80;99.90;;;;;;4955679;28;20486;-74
2023/04/01 06:49:36;;;;;;;2.83;1.83;;;11.80;99.90;;;;;;4957892;28;20462;-74
2023/04/01 06:52:26;;;;;;;2.90;1.97;;;11.80;99.90;;;;;;4956912;29;20535;-74
2023/04/01 06:55:37;;;;;;;10.37;2.13;;;11.80;99.90;;;;;;4973228;28;20793;-74
2023/04/01 06:58:34;;;;;;;3.53;1.63;;;11.80;99.90;;;;;;4957102;29;20420;-74
2023/04/01 07:01:08;;;;;;;2.70;2.00;;;11.70;99.90;;;;;;4956612;29;20447;-74
2023/04/01 07:04:21;;;;;;;2.17;1.80;;;11.70;99.90;;;;;;4956827;28;20420;-75
2023/04/01 07:07:21;;;;;;;2.10;1.90;;;11.80;99.90;;;;;;4959366;28;20908;-74
2023/04/01 07:10:01;;;;;;;1.70;1.40;;;11.70;99.90;;;;;;4958568;28;21131;-74
2023/04/01 07:12:31;;;;;;;2.63;1.87;;;11.70;99.90;;;;;;4960555;28;20477;-74
2023/04/01 07:15:24;;;;;;;2.07;1.87;;;11.70;99.90;;;;;;4952312;28;20450;-74
2023/04/01 07:18:07;;;;;;;1.73;1.63;;;11.70;99.90;;;;;;4955833;29;20453;-73
2023/04/01 07:20:36;;;;;;;2.43;1.60;;;11.70;99.90;;;;;;4971970;28;20452;-74
2023/04/01 07:23:06;;;;;;;2.33;1.57;;;11.80;99.90;;;;;;4972422;28;20880;-74
2023/04/01 07:25:53;;;;;;;3.43;1.40;;;11.80;99.90;;;;;;4972279;28;20422;-74
2023/04/01 07:28:31;;;;;;;2.50;1.70;;;11.70;99.90;;;;;;4957347;29;20453;-74
2023/04/01 07:31:23;;;;;;;1.77;1.67;;;11.70;99.90;;;;;;4972344;28;20452;-74
2023/04/01 07:34:17;;;;;;;1.70;1.60;;;11.80;99.90;;;;;;4956261;29;21139;-74
2023/04/01 07:36:46;;;;;;;2.00;1.60;;;11.70;99.90;;;;;;4972127;28;20400;-74
2023/04/01 07:39:36;;;;;;;1.83;1.73;;;11.70;99.90;;;;;;4956204;29;20821;-74
2023/04/01 07:42:29;;;;;;;1.87;1.57;;;11.70;99.90;;;;;;4972146;28;20777;-74
2023/04/01 07:45:23;;;;;;;1.80;1.70;;;11.70;99.90;;;;;;4971986;28;20406;-74
2023/04/01 07:48:48;;;;;;;2.00;1.60;;;11.70;99.90;;;;;;4971866;28;20923;-74
2023/04/01 07:51:28;;;;;;;1.63;1.53;;;11.70;99.90;;;;;;4973984;28;20968;-74
2023/04/01 07:54:18;;;;;;;2.00;1.90;;;11.70;99.90;;;;;;4974076;28;20412;-74
2023/04/01 07:56:54;;;;;;;1.97;1.80;;;11.70;99.90;;;;;;4960800;28;20411;-74
2023/04/01 07:59:51;;;;;;;1.83;1.60;;;11.70;99.90;;;;;;4971233;28;20795;-74
2023/04/01 08:02:49;;;;;;;2.40;2.20;;;11.70;99.90;;;;;;4955720;29;20433;-74
2023/04/01 08:05:36;;;;;;;2.37;1.87;;;11.70;99.90;;;;;;4971847;28;20457;-74
2023/04/01 08:08:44;;;;;;;2.37;2.17;;;11.70;99.90;;;;;;4955548;29;20422;-74
2023/04/01 08:12:01;;;;;;;3.50;2.53;;;11.70;99.90;;;;;;4971669;28;20439;-74
2023/04/01 08:14:48;;;;;;;2.93;2.63;;;11.70;99.90;;;;;;4971621;28;20784;-76
2023/04/01 08:17:49;;;;;;;3.30;2.57;;;11.70;99.90;;;;;;4969267;28;20937;-74
2023/04/01 08:20:44;;;;;;;2.77;2.57;;;11.70;99.90;;;;;;4971302;28;20790;-74
2023/04/01 08:23:10;;;;;;;2.47;2.23;;;11.70;99.90;;;;;;4971100;28;20450;-74
2023/04/01 08:25:51;;;;;;;3.70;2.27;;;11.70;99.90;;;;;;4955374;29;20425;-74
2023/04/01 08:28:29;;;;;;;2.70;2.50;;;11.70;99.90;;;;;;4971142;28;20514;-74
2023/04/01 08:31:03;;;;;;;3.77;2.50;;;11.70;99.90;;;;;;4971074;28;20449;-74
2023/04/01 08:33:40;;;;;;;2.30;2.10;;;11.70;99.90;;;;;;4971308;28;20986;-74
2023/04/01 08:36:19;;;;;;;2.70;2.50;;;11.70;99.90;;;;;;4971756;28;20434;-74
2023/04/01 08:39:03;;;;;;;3.23;2.17;;;11.70;99.90;;;;;;4971510;28;20915;-75
2023/04/01 08:41:51;;;;;;;5.70;2.75;;;11.70;99.90;;;;;;4970190;28;20506;-75
2023/04/01 08:45:06;;;;;;;2.50;2.30;;;11.80;99.90;;;;;;4974523;28;20543;-76
2023/04/01 08:47:53;;;;;;;3.10;2.80;;;11.70;99.90;;;;;;4970251;28;20506;-74
2023/04/01 08:50:36;;;;;;;3.80;2.50;;;11.40;99.90;;;;;;4958251;28;20441;-76
2023/04/01 08:53:11;;;;;;;3.50;3.20;;;11.40;99.90;;;;;;4945093;29;20471;-77
2023/04/01 08:55:47;;;;;;;3.87;3.47;;;11.40;99.90;;;;;;4964583;28;20427;-75
2023/04/01 08:58:26;;;;;;;3.87;2.73;;;11.40;99.90;;;;;;4940358;29;20452;-74
2023/04/01 09:01:43;;;;;;;2.87;2.63;;;11.50;99.90;;;;;;4952444;28;20462;-74
2023/04/01 09:04:50;;;;;;;3.93;2.77;;;11.50;99.90;;;;;;4958226;28;20494;-74
2023/04/01 09:07:57;;;;;;;3.40;3.10;;;11.50;99.90;;;;;;4973576;28;20814;-75
2023/04/01 09:10:37;;;;;;;3.83;3.47;;;11.60;99.90;;;;;;4967267;28;20443;-75
2023/04/01 09:13:35;;;;;;;6.13;4.00;;;11.60;99.90;;;;;;4973233;28;20993;-75
2023/04/01 09:16:04;;;;;;;5.20;3.60;;;11.60;99.90;;;;;;4965561;28;20477;-75
2023/04/01 09:18:41;;;;;;;5.10;3.83;;;11.60;99.90;;;;;;4963006;28;20437;-75
2023/04/01 09:21:25;;;;;;;4.70;3.70;;;11.60;99.90;;;;;;4969857;28;20875;-73
2023/04/01 09:24:10;;;;;;;8.63;4.00;;;11.70;99.90;;;;;;4969104;28;20494;-73
2023/04/01 09:26:51;;;;;;;4.57;4.10;;;11.70;99.90;;;;;;4969646;28;20813;-74
2023/04/01 09:29:38;;;;;;;4.37;3.97;;;11.70;99.90;;;;;;4969318;28;20486;-73
2023/04/01 09:32:31;;;;;;;4.50;4.10;;;11.70;99.90;;;;;;4955916;28;20489;-74
2023/04/01 09:35:21;;;;;;;5.17;4.43;;;11.70;99.90;;;;;;4938050;29;20448;-74
2023/04/01 09:37:53;;;;;;;7.27;4.40;;;11.70;99.90;;;;;;4969269;28;20458;-73
2023/04/01 09:40:25;;;;;;;5.60;4.63;;;11.70;99.90;;;;;;4953315;29;20443;-73
2023/04/01 09:43:29;;;;;;;7.28;4.70;;;11.70;99.90;;;;;;4969263;28;20445;-73
2023/04/01 09:46:03;;;;;;;5.87;4.70;;;11.70;99.90;;;;;;4950676;28;20204;-73
2023/04/01 09:49:04;;;;;;;5.47;4.97;;;11.80;99.90;;;;;;4966284;28;20444;-72
2023/04/01 09:51:36;;;;;;;5.47;4.80;;;11.80;99.90;;;;;;4952470;28;20815;-74
2023/04/01 09:54:26;;;;;;;7.13;5.47;;;11.80;99.90;;;;;;4943206;28;20963;-73
2023/04/01 09:57:05;;;;;;;7.30;5.60;;;11.80;99.90;;;;;;4946424;29;20405;-72
2023/04/01 10:00:12;;;;;;;6.43;5.80;;;11.80;99.90;;;;;;4970636;28;20478;-72
2023/04/01 10:03:27;;;;;;;6.30;5.50;;;11.90;99.90;;;;;;4969854;28;20423;-72
2023/04/01 10:05:59;;;;;;;5.00;4.50;;;11.90;99.90;;;;;;4951481;28;21067;-72
2023/04/01 10:08:51;;;;;;;7.20;6.00;;;11.80;99.90;;;;;;4953638;28;20476;-72
2023/04/01 10:11:27;;;;;;;6.30;5.70;;;11.90;99.90;;;;;;4953090;28;20501;-73
2023/04/01 10:14:22;;;;;;;6.43;5.73;;;11.90;99.90;;;;;;4968669;28;20449;-72
2023/04/01 10:17:07;;;;;;;6.23;5.37;;;11.80;99.90;;;;;;4954194;28;20473;-73
2023/04/01 10:20:10;;;;;;;7.10;6.10;;;11.80;99.90;;;;;;4969858;28;21102;-72
2023/04/01 10:23:23;;;;;;;6.77;5.90;;;11.90;99.90;;;;;;4969811;28;20851;-72
2023/04/01 10:26:23;;;;;;;7.07;5.97;;;11.90;99.90;;;;;;4954129;28;20467;-75
2023/04/01 10:29:44;;;;;;;7.23;5.90;;;11.90;99.90;;;;;;4987990;28;20449;-77
2023/04/01 10:32:25;;;;;;;6.60;5.83;;;11.90;99.90;;;;;;4991272;28;20473;-72
2023/04/01 10:35:13;;;;;;;6.37;5.40;;;11.90;99.90;;;;;;4970674;28;21100;-72
2023/04/01 10:37:49;;;;;;;7.60;5.30;;;11.80;99.90;;;;;;4969370;28;20471;-73
2023/04/01 10:40:49;;;;;;;6.90;5.80;;;11.90;99.90;;;;;;4947951;28;20521;-71
2023/04/01 10:44:09;;;;;;;7.80;6.20;;;11.90;99.90;;;;;;4956305;28;20439;-72
2023/04/01 10:47:03;;;;;;;6.00;5.40;;;11.80;99.90;;;;;;4953443;28;20433;-73
2023/04/01 10:49:29;;;;;;;7.00;5.80;;;11.80;99.90;;;;;;4956633;28;20455;-74
2023/04/01 10:52:04;;;;;;;9.93;5.60;;;11.80;99.90;;;;;;4977735;28;21033;-71
2023/04/01 10:55:36;;;;;;;6.40;5.50;;;11.90;99.90;;;;;;4956454;28;20435;-76
2023/04/01 10:59:08;;;;;;;5.37;4.83;;;11.90;99.90;;;;;;4945590;28;20472;-72
2023/04/01 11:02:32;;;;;;;8.50;5.50;;;11.90;99.90;;;;;;4964169;28;20499;-72
2023/04/01 11:05:48;;;;;;;7.63;5.47;;;11.90;99.90;;;;;;4982474;28;20426;-79
2023/04/01 11:08:45;;;;;;;5.60;5.10;;;11.90;99.90;;;;;;4954454;28;20845;-70
2023/04/01 11:11:44;;;;;;;5.53;5.00;;;11.90;99.90;;;;;;4968860;28;20880;-72
2023/04/01 11:14:31;;;;;;;6.20;5.60;;;11.90;99.90;;;;;;4959662;28;20462;-71
2023/04/01 11:17:06;;;;;;;5.83;5.23;;;11.90;99.90;;;;;;4959744;28;20459;-74
2023/04/01 11:20:09;;;;;;;5.63;5.13;;;11.90;99.90;;;;;;4978644;28;20473;-73
2023/04/01 11:23:12;;;;;;;5.27;4.77;;;11.90;99.90;;;;;;4947285;29;20979;-75
2023/04/01 11:26:07;;;;;;;6.10;5.27;;;11.90;99.90;;;;;;4941337;28;20428;-72
2023/04/01 11:29:09;;;;;;;5.00;4.60;;;11.90;99.90;;;;;;4945556;29;20484;-76
2023/04/01 11:31:55;;;;;;;5.73;4.80;;;11.90;99.90;;;;;;4954199;28;20529;-72
2023/04/01 11:35:02;;;;;;;5.30;4.53;;;11.90;99.90;;;;;;4968424;28;20451;-73
2023/04/01 11:37:36;;;;;;;5.93;5.33;;;11.90;99.90;;;;;;4954744;28;20427;-74
2023/04/01 11:40:45;;;;;;;5.33;4.80;;;11.90;99.90;;;;;;4955696;28;20605;-72
2023/04/01 11:43:36;;;;;;;5.00;4.50;;;11.90;99.90;;;;;;4955815;28;20435;-77
2023/04/01 11:47:03;;;;;;;5.40;4.70;;;11.90;99.90;;;;;;4964634;28;20429;-75
2023/04/01 11:49:41;;;;;;;6.70;4.80;;;11.90;99.90;;;;;;4932390;29;20464;-75
2023/04/01 11:52:27;;;;;;;6.27;5.60;;;11.90;99.90;;;;;;4956911;28;20513;-72
2023/04/01 11:55:06;;;;;;;5.77;5.17;;;12.00;99.90;;;;;;4963600;28;20454;-72
2023/04/01 11:58:05;;;;;;;6.10;5.20;;;12.00;99.90;;;;;;4965611;28;20453;-73
2023/04/01 12:00:42;;;;;;;5.43;4.60;;;11.90;99.90;;;;;;4952818;28;20820;-75
2023/04/01 12:03:51;;;;;;;5.93;5.40;;;12.00;99.90;;;;;;4972920;28;20441;-73
2023/04/01 12:06:36;;;;;;;6.30;5.47;;;12.00;99.90;;;;;;4972278;28;20457;-73
2023/04/01 12:09:44;;;;;;;6.00;5.40;;;12.00;99.90;;;;;;4957458;28;20440;-75
2023/04/01 12:12:41;;;;;;;5.13;4.63;;;12.00;99.90;;;;;;4975038;28;20566;-77
2023/04/01 12:15:39;;;;;;;5.10;4.37;;;12.00;99.90;;;;;;4961104;28;20423;-75
2023/04/01 12:18:26;;;;;;;5.40;4.90;;;12.00;99.90;;;;;;4968518;28;20834;-77
2023/04/01 12:21:24;;;;;;;5.90;4.93;;;12.00;99.90;;;;;;4948823;28;20509;-73
2023/04/01 12:24:06;;;;;;;5.90;5.37;;;11.90;99.90;;;;;;4935918;29;20467;-74
2023/04/01 12:26:53;;;;;;;6.07;5.30;;;12.00;99.90;;;;;;4951609;28;20507;-74
2023/04/01 12:29:50;;;;;;;5.90;5.30;;;12.00;99.90;;;;;;4953071;28;20477;-74
2023/04/01 12:32:32;;;;;;;6.10;5.47;;;12.00;99.90;;;;;;4967979;28;20541;-75
2023/04/01 12:35:02;;;;;;;5.93;5.27;;;12.00;99.90;;;;;;4949377;28;20468;-72
2023/04/01 12:37:42;;;;;;;7.10;6.40;;;12.00;99.90;;;;;;4955859;28;20865;-75
2023/04/01 12:40:18;;;;;;;8.63;6.70;;;12.00;99.90;;;;;;4939199;28;20468;-74
2023/04/01 12:42:46;;;;;;;7.07;6.37;;;12.00;99.90;;;;;;4963650;28;20667;-76
2023/04/01 12:45:17;;;;;;;6.80;6.07;;;12.00;99.90;;;;;;4954749;28;20514;-75
2023/04/01 12:48:37;;;;;;;6.87;6.20;;;12.00;99.90;;;;;;4973059;28;20188;-72
2023/04/01 12:51:32;;;;;;;7.43;6.73;;;12.00;99.90;;;;;;4971311;28;20859;-74
2023/04/01 12:54:36;;;;;;;6.90;6.00;;;12.00;99.90;;;;;;4934981;29;20456;-72
2023/04/01 12:57:14;;;;;;;6.33;5.73;;;12.00;99.90;;;;;;4959724;28;20780;-73
2023/04/01 13:00:08;;;;;;;7.10;6.40;;;12.00;99.90;;;;;;4955280;28;20470;-76
2023/04/01 13:02:51;;;;;;;7.23;6.43;;;12.00;99.90;;;;;;4985338;28;20456;-73
2023/04/01 13:05:48;;;;;;;7.17;6.37;;;12.00;99.90;;;;;;4938665;29;20440;-75
2023/04/01 13:08:49;;;;;;;6.57;5.90;;;12.00;99.90;;;;;;4966880;28;20422;-74
2023/04/01 13:11:30;;;;;;;6.53;5.83;;;12.00;99.90;;;;;;4953693;28;20455;-75
2023/04/01 13:14:06;;;;;;;9.00;5.87;;;12.00;99.90;;;;;;4984615;28;20489;-75
2023/04/01 13:16:48;;;;;;;6.10;5.50;;;12.00;99.90;;;;;;4966340;28;20439;-74
2023/04/01 13:19:20;;;;;;;7.57;6.23;;;12.00;99.90;;;;;;4959903;28;20970;-74
2023/04/01 13:22:01;;;;;;;7.27;5.60;;;12.00;99.90;;;;;;4960701;28;20454;-74
2023/04/01 13:24:49;;;;;;;6.67;5.20;;;12.00;99.90;;;;;;4976565;28;20453;-74
2023/04/01 13:27:34;;;;;;;7.00;6.00;;;12.00;99.90;;;;;;4961357;28;20519;-74
2023/04/01 13:30:23;;;;;;;6.93;5.57;;;12.10;99.90;;;;;;4952978;28;20451;-74
2023/04/01 13:32:49;;;;;;;5.00;4.50;;;12.10;99.90;;;;;;4967663;28;21019;-74
2023/04/01 13:35:33;;;;;;;5.73;5.13;;;12.10;99.90;;;;;;4967061;28;20446;-74
2023/04/01 13:38:21;;;;;;;6.07;5.47;;;12.10;99.90;;;;;;4964939;28;20550;-74
2023/04/01 13:41:12;;;;;;;5.47;4.90;;;12.10;99.90;;;;;;4955273;28;20484;-74
2023/04/01 13:44:00;;;;;;;7.37;5.40;;;12.10;99.90;;;;;;4963933;28;20478;-75
2023/04/01 13:46:35;;;;;;;5.10;4.40;;;12.10;99.90;;;;;;4967050;28;20464;-74
2023/04/01 13:49:07;;;;;;;6.87;5.10;;;12.10;99.90;;;;;;4933652;28;20408;-74
2023/04/01 13:51:54;;;;;;;5.83;4.90;;;12.00;99.90;;;;;;4966469;28;20444;-74
2023/04/01 13:54:23;;;;;;;5.60;4.53;;;12.10;99.90;;;;;;4940646;29;20459;-74
2023/04/01 13:57:20;;;;;;;5.20;4.70;;;12.10;99.90;;;;;;4951188;28;20455;-74
2023/04/01 14:00:04;;;;;;;5.60;5.00;;;12.10;99.90;;;;;;4954467;28;20446;-74
2023/04/01 14:03:10;;;;;;;7.13;4.30;;;12.10;99.90;;;;;;4975096;28;20468;-74